Kezdőlap
METAR-TAF:

METAR-TAF

Repülőterek :

Glendale Municipal Airport

Glendale, Arizona, Amerikai Egyesült Államok

földrajzi szélesség: 33-31-38N, földrajzi hosszúság: 112-17-43W, magasság: 325 m

Jelenlegi meteorológiai megfigyelések

A jelentés 10 órával és 46 perccel ezelõtt készült, 01:53 UTC
Délnyugati szél 6 kt
Hőmérséklet 34°C
Páratartalom 11%
Légköri nyomás 1009 hPa
Látótávolság: 16.1 km
Derült ég

METAR: KGEU 270153Z 23006KT 10SM SKC 34/M01 A2979 RMK LAST

Idő: 05:39 (12:39 UTC)


TAF: hiányzik

Meteorológiai megfigyelések és előrejelzések több, mint 4000 repülőtéren (METAR és TAF jelentéseket).

A térképen piros és sárga pontok jelzik az elérhető meteorológiai állomásokat.

Mozgassa az egeret a pont fölött, hogy megjelenjen az állomás neve.

Azután kattintson az időjárási megfigyelések és előrejelzések megtekintéséhez.

A térkép megváltoztatása: kattintson a fekete keresztel jelölt zöld gombra ráközelítéshez, a vonallal jelölt zöld gombra távolításhoz, vagy a zöld nyilakra a szomszédos térképek eléréséhez.


METAR-TAF: